createdAt,value
2023-04-21T00:00:09.023Z,8.02
2023-04-21T00:02:56.265Z,8.02
2023-04-21T00:05:24.114Z,7.95
2023-04-21T00:07:51.153Z,7.88
2023-04-21T00:10:18.448Z,7.92
2023-04-21T00:12:45.766Z,7.95
2023-04-21T00:15:13.005Z,7.96
2023-04-21T00:17:40.845Z,7.84
2023-04-21T00:20:10.722Z,7.79
2023-04-21T00:22:37.962Z,7.76
2023-04-21T00:25:05.775Z,7.80
2023-04-21T00:27:33.159Z,7.79
2023-04-21T00:30:01.210Z,7.79
2023-04-21T00:32:28.248Z,7.83
2023-04-21T00:34:55.862Z,7.82
2023-04-21T00:37:23.208Z,7.78
2023-04-21T00:39:50.678Z,7.79
2023-04-21T00:42:18.115Z,7.80
2023-04-21T00:44:45.778Z,7.83
2023-04-21T00:47:13.622Z,7.81
2023-04-21T00:49:41.076Z,7.78
2023-04-21T00:52:09.050Z,7.75
2023-04-21T00:54:36.605Z,7.64
2023-04-21T00:57:04.014Z,7.72
2023-04-21T00:59:31.337Z,7.64
2023-04-21T01:01:58.576Z,7.69
2023-04-21T01:04:26.208Z,7.71
2023-04-21T01:06:53.397Z,7.73
2023-04-21T01:09:21.711Z,7.75
2023-04-21T01:12:11.491Z,7.68
2023-04-21T01:14:40.408Z,7.59
2023-04-21T01:17:08.343Z,7.54
2023-04-21T01:19:40.152Z,7.55
2023-04-21T01:22:11.196Z,7.29
2023-04-21T01:24:41.118Z,7.37
2023-04-21T01:27:13.196Z,7.39
2023-04-21T01:29:42.700Z,7.38
2023-04-21T01:32:12.742Z,7.40
2023-04-21T01:34:41.305Z,7.38
2023-04-21T01:37:09.809Z,7.32
2023-04-21T01:39:44.868Z,7.38
2023-04-21T01:42:12.517Z,7.40
2023-04-21T01:44:40.541Z,7.46
2023-04-21T01:47:07.485Z,7.50
2023-04-21T01:49:35.094Z,7.55
2023-04-21T01:52:02.065Z,7.66
2023-04-21T01:54:29.783Z,7.82
2023-04-21T01:56:58.035Z,7.94
2023-04-21T01:59:25.377Z,8.03
2023-04-21T02:01:52.357Z,8.10
2023-04-21T02:04:20.127Z,8.05
2023-04-21T02:06:47.057Z,8.11
2023-04-21T02:09:14.332Z,8.19
2023-04-21T02:11:41.638Z,8.30
2023-04-21T02:14:08.978Z,8.39
2023-04-21T02:16:36.723Z,8.49
2023-04-21T02:19:04.304Z,8.54
2023-04-21T02:21:32.570Z,8.57
2023-04-21T02:23:59.893Z,8.66
2023-04-21T02:26:27.041Z,8.72
2023-04-21T02:28:54.454Z,8.76
2023-04-21T02:31:21.704Z,8.78
2023-04-21T02:33:49.278Z,8.74
2023-04-21T02:36:16.220Z,8.75
2023-04-21T02:38:43.649Z,8.78
2023-04-21T02:41:10.975Z,8.60
2023-04-21T02:43:38.304Z,8.68
2023-04-21T02:46:08.736Z,8.70
2023-04-21T02:48:36.780Z,8.57
2023-04-21T02:51:04.837Z,8.52
2023-04-21T02:53:32.380Z,8.48
2023-04-21T02:56:02.479Z,8.44
2023-04-21T02:58:29.703Z,8.28
2023-04-21T03:00:57.367Z,8.15
2023-04-21T03:03:25.109Z,8.04
2023-04-21T03:05:57.580Z,8.08
2023-04-21T03:08:25.251Z,7.93
2023-04-21T03:10:52.531Z,7.88
2023-04-21T03:13:19.802Z,7.82
2023-04-21T03:15:46.873Z,7.68
2023-04-21T03:18:14.341Z,7.61
2023-04-21T03:20:41.317Z,7.61
2023-04-21T03:23:08.853Z,7.54
2023-04-21T03:25:36.204Z,7.49
2023-04-21T03:28:03.642Z,7.52
2023-04-21T03:30:30.722Z,7.35
2023-04-21T03:32:59.201Z,7.26
2023-04-21T03:35:26.423Z,7.28
2023-04-21T03:37:53.974Z,7.30
2023-04-21T03:40:21.420Z,7.35
2023-04-21T03:42:48.897Z,7.46
2023-04-21T03:45:16.010Z,7.45
2023-04-21T03:47:43.847Z,7.43
2023-04-21T03:50:10.824Z,7.38
2023-04-21T03:52:38.048Z,7.37
2023-04-21T03:55:09.098Z,7.49
2023-04-21T03:57:36.542Z,7.55
2023-04-21T04:00:05.486Z,7.80
2023-04-21T04:02:33.784Z,7.80
2023-04-21T04:05:00.804Z,7.96
2023-04-21T04:07:28.250Z,7.98
2023-04-21T04:09:55.558Z,8.04
2023-04-21T04:12:22.907Z,8.28
2023-04-21T04:14:49.810Z,8.48
2023-04-21T04:17:17.323Z,8.66
2023-04-21T04:19:45.341Z,8.89
2023-04-21T04:22:12.752Z,9.00
2023-04-21T04:24:40.099Z,9.09
2023-04-21T04:27:07.281Z,9.16
2023-04-21T04:29:35.081Z,9.33
2023-04-21T04:32:04.314Z,9.49
2023-04-21T04:34:31.232Z,9.43
2023-04-21T04:36:58.796Z,9.43
2023-04-21T04:39:26.299Z,9.53
2023-04-21T04:41:54.575Z,9.74
2023-04-21T04:44:21.896Z,9.88
2023-04-21T04:46:49.833Z,9.97
2023-04-21T04:49:17.591Z,9.81
2023-04-21T04:51:44.809Z,9.52
2023-04-21T04:54:11.942Z,9.89
2023-04-21T04:56:40.626Z,10.15
2023-04-21T04:59:07.692Z,10.44
2023-04-21T05:01:35.107Z,10.69
2023-04-21T05:04:02.554Z,10.84
2023-04-21T05:06:30.008Z,11.03
2023-04-21T05:08:57.375Z,11.22
2023-04-21T05:11:24.771Z,11.16
2023-04-21T05:13:51.666Z,11.00
2023-04-21T05:16:19.550Z,10.97
2023-04-21T05:18:46.503Z,10.87
2023-04-21T05:21:13.966Z,11.04
2023-04-21T05:23:41.174Z,11.37
2023-04-21T05:26:08.395Z,11.59
2023-04-21T05:28:36.064Z,11.29
2023-04-21T05:31:03.795Z,11.70
2023-04-21T05:33:32.002Z,11.76
2023-04-21T05:35:59.669Z,11.93
2023-04-21T05:38:27.696Z,12.14
2023-04-21T05:40:56.294Z,12.25
2023-04-21T05:43:23.463Z,12.43
2023-04-21T05:45:51.141Z,12.54
2023-04-21T05:48:18.341Z,12.72
2023-04-21T05:50:46.005Z,12.15
2023-04-21T05:53:13.571Z,12.24
2023-04-21T05:55:40.888Z,12.24
2023-04-21T05:58:07.903Z,12.54
2023-04-21T06:00:35.478Z,12.74
2023-04-21T06:03:03.032Z,12.36
2023-04-21T06:05:30.720Z,12.65
2023-04-21T06:07:58.327Z,12.71
2023-04-21T06:10:25.636Z,12.81
2023-04-21T06:12:53.110Z,12.93
2023-04-21T06:15:20.756Z,13.10
2023-04-21T06:17:47.775Z,13.13
2023-04-21T06:20:15.276Z,13.32
2023-04-21T06:22:42.542Z,13.58
2023-04-21T06:25:10.092Z,13.22
2023-04-21T06:27:37.064Z,13.57
2023-04-21T06:30:04.863Z,13.87
2023-04-21T06:32:31.881Z,14.00
2023-04-21T06:34:59.137Z,14.16
2023-04-21T06:37:26.436Z,13.67
2023-04-21T06:39:53.695Z,13.86
2023-04-21T06:42:20.754Z,14.32
2023-04-21T06:44:49.546Z,14.49
2023-04-21T06:47:18.092Z,14.52
2023-04-21T06:49:45.970Z,14.52
2023-04-21T06:52:13.399Z,14.62
2023-04-21T06:54:40.723Z,14.61
2023-04-21T06:57:07.705Z,14.38
2023-04-21T06:59:35.157Z,14.61
2023-04-21T07:02:02.390Z,14.97
2023-04-21T07:04:32.466Z,14.89
2023-04-21T07:07:02.404Z,14.96
2023-04-21T07:09:31.008Z,14.83
2023-04-21T07:11:58.739Z,15.31
2023-04-21T07:14:27.167Z,15.18
2023-04-21T07:16:55.693Z,15.56
2023-04-21T07:19:23.495Z,15.84
2023-04-21T07:21:50.734Z,15.67
2023-04-21T07:24:18.222Z,15.90
2023-04-21T07:26:45.654Z,16.23
2023-04-21T07:29:13.284Z,16.28
2023-04-21T07:31:40.449Z,16.30
2023-04-21T07:34:07.712Z,15.80
2023-04-21T07:36:36.385Z,15.65
2023-04-21T07:39:04.401Z,16.23
2023-04-21T07:41:31.842Z,16.57
2023-04-21T07:43:59.527Z,16.87
2023-04-21T07:46:30.493Z,16.85
2023-04-21T07:48:59.806Z,16.16
2023-04-21T07:51:30.384Z,16.08
2023-04-21T07:53:57.751Z,15.99
2023-04-21T07:56:24.971Z,16.39
2023-04-21T07:58:52.653Z,16.34
2023-04-21T08:01:20.720Z,16.34
2023-04-21T08:03:48.221Z,16.40
2023-04-21T08:06:16.214Z,16.73
2023-04-21T08:08:43.942Z,16.98
2023-04-21T08:11:11.230Z,16.94
2023-04-21T08:13:39.039Z,16.58
2023-04-21T08:16:06.402Z,16.56
2023-04-21T08:18:34.066Z,16.32
2023-04-21T08:21:02.488Z,16.52
2023-04-21T08:23:32.658Z,16.96
2023-04-21T08:25:59.841Z,17.25
2023-04-21T08:28:27.473Z,17.29
2023-04-21T08:30:54.533Z,17.74
2023-04-21T08:33:22.073Z,17.42
2023-04-21T08:36:02.312Z,17.28
2023-04-21T08:38:33.603Z,17.37
2023-04-21T08:41:01.264Z,17.39
2023-04-21T08:43:29.654Z,17.44
2023-04-21T08:45:57.343Z,17.31
2023-04-21T08:48:26.623Z,17.27
2023-04-21T08:50:54.062Z,17.44
2023-04-21T08:53:21.912Z,17.24
2023-04-21T08:56:10.018Z,17.89
2023-04-21T08:58:39.046Z,17.52
2023-04-21T09:01:06.402Z,17.71
2023-04-21T09:03:34.106Z,18.16
2023-04-21T09:06:07.009Z,17.71
2023-04-21T09:08:38.421Z,17.97
2023-04-21T09:11:06.027Z,18.02
2023-04-21T09:13:37.844Z,17.96
2023-04-21T09:16:15.293Z,18.52
2023-04-21T09:18:44.600Z,18.94
2023-04-21T09:21:14.138Z,19.03
2023-04-21T09:23:47.587Z,19.49
2023-04-21T09:26:16.329Z,19.01
2023-04-21T09:28:44.951Z,19.17
2023-04-21T09:31:20.310Z,19.55
2023-04-21T09:36:21.541Z,21.10
2023-04-21T09:39:15.435Z,21.73
2023-04-21T09:41:44.150Z,22.25
2023-04-21T09:44:11.754Z,22.10
2023-04-21T09:46:39.197Z,22.52
2023-04-21T09:49:07.077Z,21.90
2023-04-21T09:54:28.327Z,22.84
2023-04-21T09:56:59.705Z,22.56
2023-04-21T09:59:30.689Z,22.52
2023-04-21T10:01:58.626Z,22.77
2023-04-21T10:04:28.143Z,22.23
2023-04-21T10:06:56.182Z,23.23
2023-04-21T10:09:25.965Z,23.41
2023-04-21T10:11:55.651Z,22.61
2023-04-21T10:14:23.358Z,22.65
2023-04-21T10:16:58.975Z,22.62
2023-04-21T10:19:28.262Z,21.52
2023-04-21T10:21:56.722Z,21.24
2023-04-21T10:24:24.425Z,21.09
2023-04-21T10:26:54.632Z,21.71
2023-04-21T10:29:47.735Z,20.83
2023-04-21T10:32:32.491Z,20.93
2023-04-21T10:34:59.985Z,20.77
2023-04-21T10:37:31.462Z,20.52
2023-04-21T10:39:58.844Z,20.79
2023-04-21T10:42:27.496Z,20.08
2023-04-21T10:44:57.771Z,19.47
2023-04-21T10:47:49.830Z,20.25
2023-04-21T10:50:39.064Z,20.77
2023-04-21T10:53:12.496Z,20.77
2023-04-21T10:55:42.364Z,20.35
2023-04-21T10:58:09.606Z,20.98
2023-04-21T11:00:40.232Z,20.98
2023-04-21T11:03:08.495Z,20.75
2023-04-21T11:05:40.807Z,20.92
2023-04-21T11:08:11.719Z,21.30
2023-04-21T11:10:57.099Z,21.54
2023-04-21T11:13:26.426Z,21.46
2023-04-21T11:16:07.632Z,21.98
2023-04-21T11:18:39.103Z,21.89
2023-04-21T11:21:11.537Z,22.23
2023-04-21T11:23:42.625Z,22.76
2023-04-21T11:26:10.094Z,23.42
2023-04-21T11:28:37.053Z,23.63
2023-04-21T11:31:05.136Z,23.30
2023-04-21T11:33:39.204Z,23.40
2023-04-21T11:38:40.106Z,22.15
2023-04-21T11:41:07.823Z,22.45
2023-04-21T11:43:35.089Z,22.48
2023-04-21T11:46:25.174Z,22.23
2023-04-21T11:49:18.594Z,21.98
2023-04-21T11:51:47.001Z,22.04
2023-04-21T11:54:15.183Z,21.07
2023-04-21T11:56:44.219Z,20.79
2023-04-21T11:59:16.406Z,20.96
2023-04-21T12:01:43.809Z,20.61
2023-04-21T12:04:15.731Z,19.78
2023-04-21T12:06:44.650Z,20.30
2023-04-21T12:09:18.730Z,20.00
2023-04-21T12:11:51.460Z,20.60
2023-04-21T12:14:20.799Z,20.50
2023-04-21T12:16:54.048Z,20.95
2023-04-21T12:19:26.716Z,21.36
2023-04-21T12:21:56.367Z,21.13
2023-04-21T12:24:23.628Z,21.18
2023-04-21T12:26:51.256Z,21.45
2023-04-21T12:29:18.636Z,21.75
2023-04-21T12:31:46.017Z,22.54
2023-04-21T12:34:13.338Z,23.08
2023-04-21T12:36:40.873Z,23.17
2023-04-21T12:39:07.957Z,22.85
2023-04-21T12:41:35.445Z,22.15
2023-04-21T12:44:02.846Z,22.16
2023-04-21T12:46:30.230Z,22.08
2023-04-21T12:48:57.437Z,21.35
2023-04-21T12:51:24.937Z,21.20
2023-04-21T12:53:52.659Z,21.41
2023-04-21T12:56:20.203Z,21.22
2023-04-21T12:58:48.470Z,21.36
2023-04-21T13:01:16.275Z,22.18
2023-04-21T13:03:43.802Z,21.22
2023-04-21T13:06:11.714Z,21.16
2023-04-21T13:08:38.801Z,22.12
2023-04-21T13:11:06.952Z,23.07
2023-04-21T13:13:34.476Z,23.52
2023-04-21T13:16:01.993Z,23.85
2023-04-21T13:18:29.084Z,23.74
2023-04-21T13:20:56.505Z,23.49
2023-04-21T13:23:23.521Z,22.87
2023-04-21T13:25:52.013Z,23.14
2023-04-21T13:28:20.029Z,23.18
2023-04-21T13:30:47.853Z,22.91
2023-04-21T13:33:15.017Z,22.06
2023-04-21T13:35:42.928Z,21.55
2023-04-21T13:38:10.065Z,20.69
2023-04-21T13:40:37.810Z,20.33
2023-04-21T13:43:05.439Z,19.58
2023-04-21T13:45:33.459Z,19.64
2023-04-21T13:48:00.708Z,19.36
2023-04-21T13:50:29.920Z,19.58
2023-04-21T13:52:57.078Z,19.96
2023-04-21T13:55:24.476Z,20.42
2023-04-21T13:57:52.309Z,20.83
2023-04-21T14:00:20.097Z,21.01
2023-04-21T14:02:48.879Z,21.15
2023-04-21T14:05:17.218Z,21.00
2023-04-21T14:07:44.272Z,21.16
2023-04-21T14:10:12.710Z,21.80
2023-04-21T14:12:41.602Z,21.73
2023-04-21T14:15:09.622Z,22.14
2023-04-21T14:17:37.007Z,22.37
2023-04-21T14:20:04.849Z,21.43
2023-04-21T14:22:31.927Z,20.95
2023-04-21T14:24:59.315Z,20.59
2023-04-21T14:27:26.846Z,19.79
2023-04-21T14:29:54.022Z,19.62
2023-04-21T14:32:22.661Z,19.57
2023-04-21T14:34:53.395Z,19.24
2023-04-21T14:37:21.970Z,19.48
2023-04-21T14:39:49.318Z,19.58
2023-04-21T14:42:16.553Z,19.94
2023-04-21T14:44:44.537Z,20.19
2023-04-21T14:47:11.765Z,20.67
2023-04-21T14:49:39.610Z,21.30
2023-04-21T14:52:07.268Z,21.94
2023-04-21T14:54:34.820Z,22.29
2023-04-21T14:57:14.758Z,21.88
2023-04-21T14:59:47.007Z,20.92
2023-04-21T15:02:14.468Z,20.70
2023-04-21T15:04:42.051Z,20.79
2023-04-21T15:07:09.287Z,20.23
2023-04-21T15:09:37.345Z,20.40
2023-04-21T15:12:05.075Z,20.22
2023-04-21T15:14:32.568Z,20.12
2023-04-21T15:16:59.914Z,20.12
2023-04-21T15:19:27.240Z,20.31
2023-04-21T15:21:54.515Z,20.55
2023-04-21T15:24:21.999Z,20.62
2023-04-21T15:26:48.953Z,20.87
2023-04-21T15:29:16.267Z,20.70
2023-04-21T15:31:43.660Z,20.38
2023-04-21T15:34:10.982Z,20.59
2023-04-21T15:36:38.511Z,20.61
2023-04-21T15:39:05.929Z,20.61
2023-04-21T15:41:33.076Z,20.80
2023-04-21T15:44:00.431Z,21.13
2023-04-21T15:46:28.396Z,20.38
2023-04-21T15:48:55.713Z,20.83
2023-04-21T15:51:22.905Z,20.93
2023-04-21T15:53:50.648Z,20.89
2023-04-21T15:56:23.930Z,21.19
2023-04-21T15:58:51.273Z,20.97
2023-04-21T16:01:20.001Z,20.73
2023-04-21T16:03:49.186Z,21.24
2023-04-21T16:06:16.800Z,21.75
2023-04-21T16:08:45.090Z,21.84
2023-04-21T16:11:12.757Z,21.43
2023-04-21T16:13:40.182Z,21.55
2023-04-21T16:16:08.810Z,22.15
2023-04-21T16:18:36.506Z,23.55
2023-04-21T16:21:04.005Z,23.84
2023-04-21T16:23:31.526Z,23.65
2023-04-21T16:25:59.131Z,24.15
2023-04-21T16:28:26.673Z,25.51
2023-04-21T16:30:53.800Z,24.86
2023-04-21T16:33:21.413Z,23.58
2023-04-21T16:35:48.812Z,23.77
2023-04-21T16:38:17.243Z,24.21
2023-04-21T16:40:44.404Z,23.75
2023-04-21T16:43:11.609Z,23.60
2023-04-21T16:45:38.784Z,23.51
2023-04-21T16:48:06.353Z,22.45
2023-04-21T16:50:33.702Z,21.68
2023-04-21T16:53:01.262Z,22.08
2023-04-21T16:55:28.679Z,23.41
2023-04-21T16:57:56.010Z,23.90
2023-04-21T17:00:23.305Z,24.10
2023-04-21T17:02:51.108Z,23.57
2023-04-21T17:05:18.729Z,22.42
2023-04-21T17:07:46.298Z,21.31
2023-04-21T17:10:13.383Z,20.61
2023-04-21T17:12:40.719Z,20.02
2023-04-21T17:15:08.536Z,19.61
2023-04-21T17:17:43.793Z,18.71
2023-04-21T17:20:13.508Z,18.23
2023-04-21T17:22:41.704Z,17.89
2023-04-21T17:25:11.042Z,17.67
2023-04-21T17:27:39.117Z,17.57
2023-04-21T17:30:07.920Z,17.24
2023-04-21T17:32:36.619Z,16.87
2023-04-21T17:35:05.909Z,16.60
2023-04-21T17:37:34.170Z,16.34
2023-04-21T17:40:03.116Z,16.20
2023-04-21T17:42:31.163Z,16.05
2023-04-21T17:44:58.229Z,15.85
2023-04-21T17:47:26.019Z,15.72
2023-04-21T17:49:53.127Z,15.53
2023-04-21T17:52:20.554Z,15.34
2023-04-21T17:54:48.027Z,15.22
2023-04-21T17:57:15.774Z,15.14
2023-04-21T17:59:42.804Z,14.95
2023-04-21T18:02:10.228Z,14.83
2023-04-21T18:04:38.030Z,14.73
2023-04-21T18:07:05.939Z,14.72
2023-04-21T18:09:32.981Z,14.57
2023-04-21T18:12:00.469Z,14.49
2023-04-21T18:14:27.900Z,14.56
2023-04-21T18:16:56.845Z,14.42
2023-04-21T18:19:24.137Z,14.31
2023-04-21T18:21:51.972Z,14.23
2023-04-21T18:24:19.771Z,14.19
2023-04-21T18:26:47.557Z,14.18
2023-04-21T18:29:18.168Z,14.12
2023-04-21T18:31:45.822Z,14.13
2023-04-21T18:34:14.598Z,13.95
2023-04-21T18:36:43.167Z,13.97
2023-04-21T18:39:11.184Z,14.00
2023-04-21T18:41:38.877Z,13.82
2023-04-21T18:44:06.054Z,13.82
2023-04-21T18:46:33.768Z,13.87
2023-04-21T18:49:01.031Z,13.73
2023-04-21T18:51:31.180Z,13.68
2023-04-21T18:53:58.415Z,13.72
2023-04-21T18:56:26.640Z,13.67
2023-04-21T18:58:53.788Z,13.54
2023-04-21T19:01:21.590Z,13.46
2023-04-21T19:03:49.078Z,13.40
2023-04-21T19:06:17.199Z,13.36
2023-04-21T19:08:44.482Z,13.33
2023-04-21T19:11:13.339Z,13.34
2023-04-21T19:13:40.329Z,13.17
2023-04-21T19:16:10.577Z,13.16
2023-04-21T19:18:37.976Z,13.13
2023-04-21T19:21:06.151Z,13.16
2023-04-21T19:23:33.518Z,13.21
2023-04-21T19:26:04.894Z,13.12
2023-04-21T19:28:32.427Z,13.14
2023-04-21T19:31:00.079Z,13.11
2023-04-21T19:33:27.379Z,13.07
2023-04-21T19:35:54.772Z,13.01
2023-04-21T19:38:22.084Z,12.87
2023-04-21T19:40:49.731Z,12.81
2023-04-21T19:43:16.961Z,12.85
2023-04-21T19:45:44.610Z,12.89
2023-04-21T19:48:12.297Z,12.68
2023-04-21T19:50:39.925Z,12.50
2023-04-21T19:53:07.046Z,12.44
2023-04-21T19:55:34.573Z,12.37
2023-04-21T19:58:01.639Z,12.29
2023-04-21T20:00:29.815Z,12.20
2023-04-21T20:02:57.094Z,12.15
2023-04-21T20:05:24.508Z,12.10
2023-04-21T20:07:51.772Z,12.06
2023-04-21T20:10:19.216Z,11.97
2023-04-21T20:12:46.252Z,11.92
2023-04-21T20:15:14.029Z,11.82
2023-04-21T20:17:42.095Z,11.82
2023-04-21T20:20:09.811Z,11.74
2023-04-21T20:22:37.182Z,11.65
2023-04-21T20:25:06.096Z,11.66
2023-04-21T20:27:33.664Z,11.67
2023-04-21T20:30:01.086Z,11.68
2023-04-21T20:32:28.192Z,11.60
2023-04-21T20:34:55.648Z,11.54
2023-04-21T20:37:23.349Z,11.45
2023-04-21T20:39:50.902Z,11.38
2023-04-21T20:42:19.350Z,11.36
2023-04-21T20:44:47.370Z,11.17
2023-04-21T20:47:14.740Z,11.08
2023-04-21T20:49:43.728Z,11.16
2023-04-21T20:52:11.013Z,11.15
2023-04-21T20:54:38.737Z,11.02
2023-04-21T20:57:07.730Z,10.89
2023-04-21T20:59:35.396Z,10.66
2023-04-21T21:02:02.782Z,10.55
2023-04-21T21:04:30.291Z,10.57
2023-04-21T21:06:57.337Z,10.64
2023-04-21T21:09:24.989Z,10.74
2023-04-21T21:11:51.921Z,10.65
2023-04-21T21:14:19.472Z,10.57
2023-04-21T21:16:46.600Z,10.54
2023-04-21T21:19:13.902Z,10.60
2023-04-21T21:21:40.905Z,10.51
2023-04-21T21:24:08.432Z,10.26
2023-04-21T21:26:35.401Z,10.19
2023-04-21T21:29:02.840Z,10.19
2023-04-21T21:31:29.983Z,10.18
2023-04-21T21:33:58.382Z,10.17
2023-04-21T21:36:25.415Z,10.17
2023-04-21T21:38:52.825Z,10.14
2023-04-21T21:41:19.851Z,10.18
2023-04-21T21:43:47.214Z,10.15
2023-04-21T21:46:14.293Z,9.98
2023-04-21T21:48:42.683Z,9.78
2023-04-21T21:51:09.831Z,9.73
2023-04-21T21:53:37.258Z,9.65
2023-04-21T21:56:04.350Z,9.59
2023-04-21T21:58:31.955Z,9.46
2023-04-21T22:00:59.537Z,9.43
2023-04-21T22:03:27.414Z,9.37
2023-04-21T22:05:54.619Z,9.38
2023-04-21T22:08:22.197Z,9.29
2023-04-21T22:10:49.257Z,9.26
2023-04-21T22:13:16.672Z,9.24
2023-04-21T22:15:43.956Z,9.20
2023-04-21T22:18:11.286Z,9.22
2023-04-21T22:20:38.644Z,9.24
2023-04-21T22:23:05.923Z,9.07
2023-04-21T22:25:32.886Z,8.95
2023-04-21T22:28:00.291Z,8.82
2023-04-21T22:30:27.326Z,8.73
2023-04-21T22:32:54.558Z,8.73
2023-04-21T22:35:21.704Z,8.66
2023-04-21T22:37:49.045Z,8.55
2023-04-21T22:40:15.957Z,8.50
2023-04-21T22:42:43.334Z,8.43
2023-04-21T22:45:10.758Z,8.39
2023-04-21T22:47:38.046Z,8.43
2023-04-21T22:50:05.621Z,8.46
2023-04-21T22:52:33.198Z,8.44
2023-04-21T22:55:00.157Z,8.39
2023-04-21T22:57:27.685Z,8.41
2023-04-21T22:59:54.900Z,8.38
2023-04-21T23:02:22.190Z,8.37
2023-04-21T23:04:49.350Z,8.45
2023-04-21T23:07:16.848Z,8.52
2023-04-21T23:09:43.763Z,8.63
2023-04-21T23:12:11.274Z,8.77
2023-04-21T23:14:38.488Z,8.67
2023-04-21T23:17:06.074Z,8.53
2023-04-21T23:19:33.087Z,8.49
2023-04-21T23:22:00.626Z,8.39
2023-04-21T23:24:27.548Z,8.26
2023-04-21T23:26:55.045Z,8.26
2023-04-21T23:29:22.093Z,8.23
2023-04-21T23:31:49.344Z,8.27
2023-04-21T23:34:16.498Z,8.11
2023-04-21T23:36:43.889Z,8.04
2023-04-21T23:39:11.509Z,8.29
2023-04-21T23:41:39.175Z,8.43
2023-04-21T23:44:06.431Z,8.44
2023-04-21T23:46:33.722Z,8.46
2023-04-21T23:49:01.049Z,8.53
2023-04-21T23:51:28.886Z,8.47
2023-04-21T23:53:55.836Z,8.45
2023-04-21T23:56:23.061Z,8.48
2023-04-21T23:58:50.154Z,8.44
